createdAt,value
2022-12-28T00:01:41.932Z,89.70
2022-12-28T00:04:16.110Z,89.80
2022-12-28T00:06:47.160Z,89.90
2022-12-28T00:09:17.978Z,90.10
2022-12-28T00:11:47.998Z,89.80
2022-12-28T00:14:17.991Z,90.10
2022-12-28T00:16:47.939Z,90.10
2022-12-28T00:19:23.196Z,90.20
2022-12-28T00:21:55.432Z,90.20
2022-12-28T00:24:27.599Z,90.10
2022-12-28T00:26:58.550Z,89.90
2022-12-28T00:29:31.074Z,89.00
2022-12-28T00:32:01.258Z,89.10
2022-12-28T00:34:31.314Z,89.60
2022-12-28T00:37:11.094Z,89.80
2022-12-28T00:39:44.305Z,89.50
2022-12-28T00:42:14.210Z,89.30
2022-12-28T00:44:44.139Z,88.90
2022-12-28T00:47:14.242Z,89.00
2022-12-28T00:49:44.487Z,89.40
2022-12-28T00:52:15.363Z,90.00
2022-12-28T00:54:45.115Z,90.00
2022-12-28T00:57:15.084Z,90.10
2022-12-28T00:59:45.086Z,90.00
2022-12-28T01:02:14.999Z,90.00
2022-12-28T01:04:44.987Z,89.90
2022-12-28T01:07:15.006Z,89.90
2022-12-28T01:09:44.932Z,89.90
2022-12-28T01:12:14.946Z,89.40
2022-12-28T01:14:44.949Z,89.30
2022-12-28T01:17:14.881Z,89.80
2022-12-28T01:19:50.265Z,90.00
2022-12-28T01:22:23.840Z,89.50
2022-12-28T01:24:53.717Z,89.10
2022-12-28T01:27:23.829Z,88.80
2022-12-28T01:29:53.926Z,88.90
2022-12-28T01:32:23.853Z,88.80
2022-12-28T01:34:53.729Z,88.70
2022-12-28T01:37:23.673Z,88.60
2022-12-28T01:39:53.591Z,89.00
2022-12-28T01:42:23.504Z,89.10
2022-12-28T01:44:54.679Z,88.80
2022-12-28T01:47:34.091Z,88.90
2022-12-28T01:50:11.569Z,88.60
2022-12-28T01:52:49.577Z,88.60
2022-12-28T01:55:26.711Z,88.60
2022-12-28T01:58:07.269Z,89.20
2022-12-28T02:00:38.297Z,88.60
2022-12-28T02:03:13.624Z,88.70
2022-12-28T02:05:48.373Z,87.90
2022-12-28T02:08:28.800Z,88.00
2022-12-28T02:10:59.358Z,87.60
2022-12-28T02:13:29.729Z,86.50
2022-12-28T02:15:59.775Z,86.10
2022-12-28T02:18:30.101Z,86.10
2022-12-28T02:21:32.933Z,85.90
2022-12-28T02:24:35.267Z,85.90
2022-12-28T02:27:21.009Z,84.60
2022-12-28T02:30:11.604Z,83.60
2022-12-28T02:33:05.626Z,83.30
2022-12-28T02:36:05.659Z,82.50
2022-12-28T02:38:50.675Z,82.20
2022-12-28T02:41:24.917Z,82.10
2022-12-28T02:43:56.462Z,81.50
2022-12-28T02:46:45.945Z,82.10
2022-12-28T02:49:36.060Z,81.80
2022-12-28T02:52:44.811Z,82.20
2022-12-28T02:55:56.433Z,82.70
2022-12-28T02:59:05.138Z,81.20
2022-12-28T03:02:07.643Z,81.70
2022-12-28T03:05:08.012Z,82.40
2022-12-28T03:08:07.177Z,82.40
2022-12-28T03:10:54.898Z,81.70
2022-12-28T03:13:47.525Z,81.90
2022-12-28T03:16:47.756Z,81.30
2022-12-28T03:19:27.863Z,80.60
2022-12-28T03:22:18.208Z,79.70
2022-12-28T03:25:08.149Z,80.40
2022-12-28T03:27:58.462Z,81.50
2022-12-28T03:30:38.626Z,81.70
2022-12-28T03:33:10.764Z,80.50
2022-12-28T03:35:59.407Z,80.60
2022-12-28T03:38:37.869Z,79.50
2022-12-28T03:41:16.996Z,78.50
2022-12-28T03:43:55.979Z,78.70
2022-12-28T03:46:36.513Z,76.90
2022-12-28T03:49:06.885Z,76.20
2022-12-28T03:51:37.938Z,75.20
2022-12-28T03:54:08.058Z,74.60
2022-12-28T03:56:47.144Z,75.70
2022-12-28T03:59:18.347Z,76.00
2022-12-28T04:01:48.367Z,75.70
2022-12-28T04:04:18.602Z,74.90
2022-12-28T04:06:49.430Z,75.10
2022-12-28T04:09:19.529Z,73.70
2022-12-28T04:11:49.488Z,74.50
2022-12-28T04:14:19.589Z,74.90
2022-12-28T04:16:49.450Z,73.80
2022-12-28T04:19:19.457Z,74.30
2022-12-28T04:21:49.564Z,74.40
2022-12-28T04:24:19.376Z,74.10
2022-12-28T04:26:49.399Z,75.30
2022-12-28T04:29:19.502Z,75.90
2022-12-28T04:31:49.454Z,74.20
2022-12-28T04:34:19.640Z,74.90
2022-12-28T04:36:49.690Z,74.80
2022-12-28T04:39:19.663Z,76.10
2022-12-28T04:41:49.860Z,75.40
2022-12-28T04:44:19.922Z,75.30
2022-12-28T04:46:49.897Z,75.50
2022-12-28T04:49:19.972Z,75.50
2022-12-28T04:51:49.919Z,74.60
2022-12-28T04:54:20.022Z,76.00
2022-12-28T04:56:50.040Z,75.80
2022-12-28T04:59:21.532Z,75.10
2022-12-28T05:01:51.694Z,75.40
2022-12-28T05:04:21.976Z,74.80
2022-12-28T05:06:51.959Z,74.70
2022-12-28T05:09:21.965Z,75.20
2022-12-28T05:11:52.438Z,75.40
2022-12-28T05:14:22.048Z,75.10
2022-12-28T05:16:54.734Z,74.60
2022-12-28T05:19:26.301Z,74.60
2022-12-28T05:21:56.421Z,74.00
2022-12-28T05:24:26.432Z,73.30
2022-12-28T05:26:56.464Z,73.20
2022-12-28T05:29:26.367Z,72.70
2022-12-28T05:31:56.521Z,73.50
2022-12-28T05:34:26.817Z,73.10
2022-12-28T05:36:57.083Z,73.30
2022-12-28T05:39:28.050Z,72.20
2022-12-28T05:42:01.884Z,71.50
2022-12-28T05:44:33.158Z,70.70
2022-12-28T05:47:03.237Z,70.50
2022-12-28T05:49:33.296Z,70.20
2022-12-28T05:52:03.194Z,70.50
2022-12-28T05:54:33.299Z,70.40
2022-12-28T05:57:03.259Z,70.30
2022-12-28T05:59:33.255Z,70.10
2022-12-28T06:02:03.360Z,69.90
2022-12-28T06:04:33.281Z,69.70
2022-12-28T06:07:04.269Z,67.10
2022-12-28T06:09:34.906Z,66.90
2022-12-28T06:12:06.536Z,67.30
2022-12-28T06:14:36.568Z,67.70
2022-12-28T06:17:06.669Z,68.80
2022-12-28T06:19:36.848Z,67.60
2022-12-28T06:22:08.776Z,67.80
2022-12-28T06:24:38.922Z,67.90
2022-12-28T06:27:12.435Z,66.20
2022-12-28T06:29:42.817Z,63.60
2022-12-28T06:32:12.184Z,61.60
2022-12-28T06:34:42.141Z,63.20
2022-12-28T06:37:12.356Z,62.20
2022-12-28T06:39:42.391Z,62.50
2022-12-28T06:42:12.316Z,61.90
2022-12-28T06:44:44.676Z,62.70
2022-12-28T06:47:14.992Z,63.50
2022-12-28T06:49:49.494Z,63.10
2022-12-28T06:52:19.389Z,60.90
2022-12-28T06:54:50.113Z,61.40
2022-12-28T06:57:20.071Z,60.90
2022-12-28T06:59:49.990Z,61.50
2022-12-28T07:02:21.561Z,62.00
2022-12-28T07:04:51.712Z,58.40
2022-12-28T07:07:21.741Z,59.90
2022-12-28T07:09:52.669Z,57.50
2022-12-28T07:12:22.548Z,59.50
2022-12-28T07:14:52.535Z,58.00
2022-12-28T07:17:22.490Z,60.20
2022-12-28T07:19:53.065Z,60.10
2022-12-28T07:22:23.949Z,60.30
2022-12-28T07:24:53.876Z,59.80
2022-12-28T07:27:23.859Z,58.20
2022-12-28T07:29:53.712Z,58.40
2022-12-28T07:32:23.751Z,59.40
2022-12-28T07:34:53.916Z,59.20
2022-12-28T07:37:23.778Z,58.30
2022-12-28T07:39:53.725Z,57.90
2022-12-28T07:42:24.032Z,57.90
2022-12-28T07:44:54.242Z,58.20
2022-12-28T07:47:24.653Z,59.40
2022-12-28T07:49:54.862Z,61.50
2022-12-28T07:52:24.834Z,63.10
2022-12-28T07:54:55.754Z,62.80
2022-12-28T07:57:25.910Z,62.40
2022-12-28T07:59:56.513Z,62.90
2022-12-28T08:02:26.663Z,62.80
2022-12-28T08:04:56.690Z,62.70
2022-12-28T08:07:26.682Z,63.30
2022-12-28T08:09:56.708Z,63.60
2022-12-28T08:12:26.703Z,64.40
2022-12-28T08:14:57.359Z,63.60
2022-12-28T08:17:27.400Z,63.80
2022-12-28T08:19:57.380Z,63.20
2022-12-28T08:22:27.330Z,61.70
2022-12-28T08:24:57.181Z,62.20
2022-12-28T08:27:27.210Z,62.70
2022-12-28T08:29:57.317Z,63.10
2022-12-28T08:32:27.637Z,62.70
2022-12-28T08:34:57.603Z,63.00
2022-12-28T08:37:27.814Z,62.50
2022-12-28T08:39:57.811Z,62.70
2022-12-28T08:42:27.864Z,63.20
2022-12-28T08:44:58.215Z,63.70
2022-12-28T08:47:28.123Z,64.20
2022-12-28T08:49:58.234Z,63.50
2022-12-28T08:52:29.422Z,62.80
2022-12-28T08:54:59.476Z,63.30
2022-12-28T08:57:29.615Z,61.70
2022-12-28T08:59:59.641Z,62.70
2022-12-28T09:02:29.738Z,62.00
2022-12-28T09:04:59.891Z,63.60
2022-12-28T09:07:29.946Z,63.80
2022-12-28T09:10:00.104Z,64.10
2022-12-28T09:12:30.468Z,64.60
2022-12-28T09:15:00.487Z,65.50
2022-12-28T09:17:30.622Z,65.60
2022-12-28T09:20:00.844Z,65.50
2022-12-28T09:22:32.561Z,65.80
2022-12-28T09:25:02.922Z,66.00
2022-12-28T09:27:32.472Z,66.10
2022-12-28T09:30:02.559Z,66.60
2022-12-28T09:32:32.762Z,66.50
2022-12-28T09:35:02.715Z,66.90
2022-12-28T09:37:32.740Z,67.50
2022-12-28T09:40:02.864Z,68.20
2022-12-28T09:42:33.950Z,67.50
2022-12-28T09:45:14.248Z,67.20
2022-12-28T09:47:51.586Z,67.00
2022-12-28T09:50:37.388Z,66.70
2022-12-28T09:53:31.204Z,66.90
2022-12-28T09:56:27.049Z,67.10
2022-12-28T09:58:57.644Z,66.10
2022-12-28T10:01:28.891Z,66.50
2022-12-28T10:04:02.691Z,68.10
2022-12-28T10:06:38.528Z,69.00
2022-12-28T10:09:18.404Z,69.40
2022-12-28T10:11:48.615Z,69.60
2022-12-28T10:14:37.873Z,69.70
2022-12-28T10:17:09.517Z,70.00
2022-12-28T10:19:39.477Z,70.50
2022-12-28T10:22:18.543Z,71.20
2022-12-28T10:24:49.503Z,71.20
2022-12-28T10:27:26.356Z,71.60
2022-12-28T10:29:57.125Z,71.80
2022-12-28T10:32:27.126Z,72.40
2022-12-28T10:35:00.601Z,72.10
2022-12-28T10:37:34.080Z,72.90
2022-12-28T10:40:09.281Z,72.30
2022-12-28T10:42:42.056Z,72.10
2022-12-28T10:45:24.764Z,72.90
2022-12-28T10:47:57.874Z,73.30
2022-12-28T10:50:51.507Z,72.90
2022-12-28T10:53:44.371Z,73.20
2022-12-28T10:56:32.411Z,72.80
2022-12-28T10:59:26.636Z,72.30
2022-12-28T11:01:58.933Z,72.10
2022-12-28T11:04:29.447Z,72.70
2022-12-28T11:07:02.343Z,72.70
2022-12-28T11:09:34.636Z,73.30
2022-12-28T11:12:25.656Z,73.20
2022-12-28T11:14:56.383Z,74.00
2022-12-28T11:17:33.063Z,74.10
2022-12-28T11:20:20.095Z,75.00
2022-12-28T11:22:50.687Z,75.30
2022-12-28T11:25:22.008Z,75.30
2022-12-28T11:27:52.050Z,75.70
2022-12-28T11:30:23.464Z,76.30
2022-12-28T11:32:59.167Z,76.60
2022-12-28T11:35:36.147Z,76.50
2022-12-28T11:38:08.703Z,76.90
2022-12-28T11:40:54.252Z,77.70
2022-12-28T11:43:42.231Z,78.40
2022-12-28T11:46:40.768Z,78.40
2022-12-28T11:49:28.946Z,79.50
2022-12-28T11:52:35.871Z,80.30
2022-12-28T11:55:41.843Z,80.00
2022-12-28T11:58:42.130Z,79.50
2022-12-28T12:01:14.452Z,80.80
2022-12-28T12:04:13.716Z,80.90
2022-12-28T12:07:27.453Z,81.30
2022-12-28T12:10:18.114Z,81.30
2022-12-28T12:12:54.363Z,81.50
2022-12-28T12:15:35.297Z,82.00
2022-12-28T12:18:09.401Z,81.80
2022-12-28T12:21:01.520Z,81.80
2022-12-28T12:23:42.024Z,81.90
2022-12-28T12:26:33.841Z,82.10
2022-12-28T12:29:17.610Z,82.30
2022-12-28T12:32:04.040Z,82.80
2022-12-28T12:34:47.609Z,83.00
2022-12-28T12:37:54.379Z,83.40
2022-12-28T12:40:54.448Z,83.70
2022-12-28T12:43:54.859Z,84.00
2022-12-28T12:46:49.219Z,84.10
2022-12-28T12:49:42.640Z,84.40
2022-12-28T12:52:39.250Z,84.70
2022-12-28T12:55:45.489Z,84.80
2022-12-28T12:58:32.796Z,85.00
2022-12-28T13:01:37.422Z,85.20
2022-12-28T13:04:22.464Z,85.60
2022-12-28T13:06:59.325Z,85.40
2022-12-28T13:09:32.328Z,85.60
2022-12-28T13:12:07.037Z,85.80
2022-12-28T13:14:37.666Z,85.90
2022-12-28T13:17:22.357Z,85.70
2022-12-28T13:19:52.743Z,86.10
2022-12-28T13:22:37.850Z,86.00
2022-12-28T13:25:08.102Z,86.40
2022-12-28T13:27:38.577Z,86.60
2022-12-28T13:30:22.209Z,86.50
2022-12-28T13:32:56.547Z,86.50
2022-12-28T13:35:30.768Z,86.20
2022-12-28T13:38:06.201Z,86.30
2022-12-28T13:40:36.875Z,86.40
2022-12-28T13:43:17.636Z,86.40
2022-12-28T13:45:51.033Z,86.60
2022-12-28T13:48:21.871Z,86.40
2022-12-28T13:50:54.264Z,86.30
2022-12-28T13:53:29.062Z,86.50
2022-12-28T13:56:04.788Z,86.60
2022-12-28T13:58:41.880Z,86.70
2022-12-28T14:01:20.159Z,86.70
2022-12-28T14:03:51.151Z,86.50
2022-12-28T14:06:22.808Z,86.30
2022-12-28T14:08:55.476Z,86.30
2022-12-28T14:11:26.057Z,86.10
2022-12-28T14:13:58.706Z,86.30
2022-12-28T14:16:28.995Z,86.40
2022-12-28T14:18:59.961Z,86.70
2022-12-28T14:21:47.527Z,87.00
2022-12-28T14:24:22.061Z,86.90
2022-12-28T14:26:56.128Z,87.10
2022-12-28T14:29:32.487Z,87.00
2022-12-28T14:32:05.710Z,87.40
2022-12-28T14:34:40.729Z,87.40
2022-12-28T14:37:33.990Z,87.10
2022-12-28T14:40:07.714Z,87.30
2022-12-28T14:42:37.782Z,87.10
2022-12-28T14:45:26.426Z,87.30
2022-12-28T14:48:04.325Z,87.30
2022-12-28T14:50:34.439Z,87.60
2022-12-28T14:53:22.671Z,87.60
2022-12-28T14:56:13.796Z,87.50
2022-12-28T14:58:59.926Z,87.70
2022-12-28T15:01:47.518Z,88.20
2022-12-28T15:04:42.385Z,88.00
2022-12-28T15:07:13.746Z,87.90
2022-12-28T15:09:43.870Z,88.10
2022-12-28T15:12:19.935Z,88.10
2022-12-28T15:14:50.717Z,88.20
2022-12-28T15:17:20.075Z,88.20
2022-12-28T15:19:50.100Z,88.10
2022-12-28T15:22:19.956Z,88.30
2022-12-28T15:24:50.532Z,88.20
2022-12-28T15:27:20.405Z,88.40
2022-12-28T15:30:06.561Z,88.40
2022-12-28T15:32:38.301Z,88.60
2022-12-28T15:35:08.843Z,89.00
2022-12-28T15:37:39.772Z,88.80
2022-12-28T15:40:11.136Z,88.70
2022-12-28T15:42:41.666Z,88.80
2022-12-28T15:45:15.785Z,89.10
2022-12-28T15:47:46.819Z,88.80
2022-12-28T15:50:16.697Z,89.00
2022-12-28T15:52:46.860Z,89.20
2022-12-28T15:55:17.843Z,89.20
2022-12-28T15:57:47.810Z,89.50
2022-12-28T16:00:20.760Z,89.80
2022-12-28T16:02:51.070Z,89.60
2022-12-28T16:05:21.176Z,89.90
2022-12-28T16:07:51.449Z,90.00
2022-12-28T16:10:21.352Z,90.00
2022-12-28T16:12:51.374Z,90.10
2022-12-28T16:15:21.265Z,90.20
2022-12-28T16:17:57.031Z,90.20
2022-12-28T16:20:28.238Z,90.10
2022-12-28T16:22:58.149Z,90.00
2022-12-28T16:25:28.065Z,90.20
2022-12-28T16:27:57.868Z,90.30
2022-12-28T16:30:27.877Z,90.40
2022-12-28T16:32:57.929Z,90.30
2022-12-28T16:35:28.163Z,90.30
2022-12-28T16:37:58.113Z,90.40
2022-12-28T16:40:28.402Z,90.50
2022-12-28T16:42:58.529Z,90.50
2022-12-28T16:45:29.221Z,90.60
2022-12-28T16:47:58.551Z,90.70
2022-12-28T16:50:28.547Z,90.70
2022-12-28T16:53:02.598Z,90.80
2022-12-28T16:55:35.308Z,90.80
2022-12-28T16:58:06.273Z,90.90
2022-12-28T17:00:36.318Z,90.90
2022-12-28T17:03:06.417Z,90.90
2022-12-28T17:05:38.056Z,90.80
2022-12-28T17:08:08.196Z,90.90
2022-12-28T17:10:43.678Z,91.00
2022-12-28T17:13:13.784Z,91.00
2022-12-28T17:15:44.960Z,91.10
2022-12-28T17:18:15.629Z,91.10
2022-12-28T17:20:47.857Z,91.10
2022-12-28T17:23:17.787Z,91.10
2022-12-28T17:25:53.505Z,91.30
2022-12-28T17:28:24.307Z,91.20
2022-12-28T17:30:53.528Z,91.20
2022-12-28T17:33:23.787Z,91.20
2022-12-28T17:35:58.062Z,91.20
2022-12-28T17:38:28.078Z,91.20
2022-12-28T17:40:58.168Z,91.40
2022-12-28T17:43:28.713Z,91.50
2022-12-28T17:45:59.566Z,91.30
2022-12-28T17:48:31.834Z,91.30
2022-12-28T17:51:04.365Z,91.30
2022-12-28T17:53:37.691Z,91.40
2022-12-28T17:56:10.428Z,91.50
2022-12-28T17:58:40.601Z,91.60
2022-12-28T18:01:10.922Z,91.60
2022-12-28T18:03:41.359Z,91.60
2022-12-28T18:06:11.952Z,91.80
2022-12-28T18:08:41.868Z,91.60
2022-12-28T18:11:12.925Z,91.60
2022-12-28T18:13:44.477Z,91.40
2022-12-28T18:16:18.092Z,91.50
2022-12-28T18:18:48.445Z,91.60
2022-12-28T18:21:21.941Z,91.70
2022-12-28T18:23:54.495Z,91.70
2022-12-28T18:26:28.620Z,91.80
2022-12-28T18:28:59.529Z,91.70
2022-12-28T18:31:29.728Z,91.70
2022-12-28T18:34:00.256Z,91.70
2022-12-28T18:36:30.504Z,91.70
2022-12-28T18:39:01.124Z,91.70
2022-12-28T18:41:34.269Z,91.80
2022-12-28T18:44:04.928Z,91.70
2022-12-28T18:46:34.893Z,91.70
2022-12-28T18:49:04.976Z,91.60
2022-12-28T18:51:35.062Z,91.70
2022-12-28T18:54:05.222Z,91.70
2022-12-28T18:56:35.429Z,91.80
2022-12-28T18:59:05.455Z,91.90
2022-12-28T19:02:10.731Z,91.70
2022-12-28T19:04:30.847Z,91.60
2022-12-28T19:07:00.998Z,91.50
2022-12-28T19:09:30.944Z,91.50
2022-12-28T19:12:01.680Z,91.50
2022-12-28T19:14:31.782Z,91.40
2022-12-28T19:17:01.715Z,91.50
2022-12-28T19:19:32.083Z,91.20
2022-12-28T19:22:01.998Z,91.30
2022-12-28T19:24:32.085Z,91.30
2022-12-28T19:27:02.208Z,91.20
2022-12-28T19:29:33.942Z,91.20
2022-12-28T19:32:04.070Z,91.20
2022-12-28T19:34:33.999Z,91.10
2022-12-28T19:37:04.059Z,91.30
2022-12-28T19:39:35.122Z,91.30
2022-12-28T19:42:05.034Z,91.30
2022-12-28T19:44:35.269Z,91.30
2022-12-28T19:47:06.076Z,91.30
2022-12-28T19:49:35.512Z,91.30
2022-12-28T19:52:06.188Z,91.50
2022-12-28T19:54:38.154Z,91.60
2022-12-28T19:57:09.621Z,91.60
2022-12-28T19:59:39.693Z,91.60
2022-12-28T20:02:09.821Z,91.60
2022-12-28T20:04:39.883Z,91.50
2022-12-28T20:07:09.857Z,91.50
2022-12-28T20:09:40.217Z,91.70
2022-12-28T20:12:10.216Z,91.70
2022-12-28T20:14:40.243Z,91.90
2022-12-28T20:17:10.197Z,91.80
2022-12-28T20:19:40.356Z,91.80
2022-12-28T20:22:10.333Z,91.80
2022-12-28T20:24:40.263Z,91.90
2022-12-28T20:27:10.283Z,91.90
2022-12-28T20:29:40.339Z,91.80
2022-12-28T20:32:10.250Z,92.10
2022-12-28T20:34:41.036Z,92.20
2022-12-28T20:37:10.269Z,92.30
2022-12-28T20:39:40.887Z,92.30
2022-12-28T20:42:22.959Z,92.30
2022-12-28T20:44:52.821Z,92.30
2022-12-28T20:47:22.806Z,92.10
2022-12-28T20:49:53.399Z,91.80
2022-12-28T20:52:23.310Z,91.80
2022-12-28T20:54:53.278Z,92.00
2022-12-28T20:57:23.516Z,92.00
2022-12-28T20:59:53.427Z,92.10
2022-12-28T21:02:23.471Z,92.30
2022-12-28T21:04:53.638Z,92.30
2022-12-28T21:07:23.576Z,92.30
2022-12-28T21:09:53.705Z,92.40
2022-12-28T21:12:23.507Z,92.30
2022-12-28T21:14:53.412Z,92.30
2022-12-28T21:17:23.589Z,92.30
2022-12-28T21:19:53.956Z,92.40
2022-12-28T21:22:23.878Z,92.40
2022-12-28T21:24:53.821Z,92.40
2022-12-28T21:27:23.746Z,92.40
2022-12-28T21:29:53.635Z,92.50
2022-12-28T21:32:23.704Z,92.50
2022-12-28T21:34:53.603Z,92.50
2022-12-28T21:37:36.201Z,92.40
2022-12-28T21:40:09.435Z,92.40
2022-12-28T21:42:39.621Z,92.50
2022-12-28T21:45:09.913Z,92.40
2022-12-28T21:47:40.030Z,92.50
2022-12-28T21:50:12.167Z,92.50
2022-12-28T21:52:42.156Z,92.40
2022-12-28T21:55:27.287Z,92.40
2022-12-28T21:57:59.546Z,92.20
2022-12-28T22:00:47.585Z,92.10
2022-12-28T22:03:27.688Z,92.00
2022-12-28T22:06:04.906Z,91.90
2022-12-28T22:08:47.953Z,91.90
2022-12-28T22:11:38.763Z,92.00
2022-12-28T22:14:09.777Z,91.90
2022-12-28T22:16:40.462Z,91.80
2022-12-28T22:19:10.409Z,91.70
2022-12-28T22:21:40.383Z,91.90
2022-12-28T22:24:10.608Z,91.90
2022-12-28T22:26:40.560Z,91.90
2022-12-28T22:29:10.634Z,91.90
2022-12-28T22:31:41.459Z,91.80
2022-12-28T22:34:10.765Z,91.70
2022-12-28T22:36:40.661Z,91.70
2022-12-28T22:39:10.687Z,91.60
2022-12-28T22:41:40.596Z,91.70
2022-12-28T22:44:13.011Z,91.80
2022-12-28T22:46:42.889Z,91.70
2022-12-28T22:49:12.938Z,91.80
2022-12-28T22:51:43.086Z,91.90
2022-12-28T22:54:13.097Z,92.00
2022-12-28T22:56:42.965Z,92.10
2022-12-28T22:59:15.824Z,92.10
2022-12-28T23:01:46.606Z,92.20
2022-12-28T23:04:17.830Z,92.40
2022-12-28T23:06:47.766Z,92.50
2022-12-28T23:09:17.681Z,92.40
2022-12-28T23:11:50.959Z,92.20
2022-12-28T23:14:44.709Z,92.30
2022-12-28T23:17:17.055Z,92.20
2022-12-28T23:20:02.248Z,92.20
2022-12-28T23:22:52.485Z,92.10
2022-12-28T23:25:42.576Z,92.00
2022-12-28T23:28:16.304Z,91.90
2022-12-28T23:30:49.999Z,91.80
2022-12-28T23:33:21.174Z,91.50
2022-12-28T23:35:51.154Z,91.60
2022-12-28T23:38:21.131Z,91.70
2022-12-28T23:41:10.474Z,91.80
2022-12-28T23:43:40.435Z,92.10
2022-12-28T23:46:10.396Z,91.80
2022-12-28T23:48:40.389Z,91.80
2022-12-28T23:51:10.392Z,91.80
2022-12-28T23:53:40.301Z,91.90
2022-12-28T23:56:10.769Z,92.00
2022-12-28T23:58:40.643Z,92.00
